Airfield :
LOGIN :

Register | Disclaimer

   EN    FR    IT 

 










Legend :    VFR   Marginal VFR   IFR   Intensive IFR   Very Intensive IFR
Visi :
Ceiling :
>= 8 km
>= 3000ft
5 to 8 km
1000 to 3000 ft
1500m to 5 km
500 to 1000 ft
800 to 1500m
200 to 500 ft
< 800m
< 200 ft
Symbols :   Thunderstorms  Fog  Heavy snow  Heavy precipitations  Wind > 20 kt
SIGMETs :     Misc.  Thunderstorms  Icing  Turbulence  Mountain Waves  Volcanic Ashes






- Airport Elevation : 93 ft
- IATA code : XRY


LEJR - Jerez

CURRENT METAR :
  • 090100Z AUTO 00000KT CAVOK 14/10 Q1019

EXPIRED METARs :
  • 090030Z AUTO VRB01KT CAVOK 15/09 Q1019
  • 090000Z AUTO 06003KT CAVOK 15/10 Q1019
  • 082330Z AUTO 36003KT 330V050 CAVOK 14/11 Q1019
  • 082300Z AUTO 35002KT CAVOK 14/11 Q1020
  • 082230Z AUTO VRB02KT CAVOK 15/11 Q1020

TAF TAF LEJR
Valid from the 09 at 00:00 until the 10 at 00:00 UTC


082300Z 0900/0924 VRB03KT 9999 FEW035 SCT065 TX21/0914Z TN13/0906Z
PROB30
TEMPO 0912/0916 4000 -RA



MET'MAP, your aeronautical weather chart ! - Copyright ORBIFLY December 2007 - Disclaimer

ORBIFLY MET'MAP TEAM :

Programming & Development : Alexandra Zaïnal
Concept & original design : Baudouin d'Aumeries
Assistance for programming : Marc-Olivier Méhu
Technical & hardware support : Manuel Goepfert

Contact : metmap@orbifly.com




SOURCES & CREDITS :

   NOAA